Bookmark and Share
Track history (hours):
 

Besiktas Bosphorus

Last reported at 2014-Apr-19 08:28 UTC. Time now 2014-Apr-24 06:11 UTC.
Position N 43°27' E 034°56'.

Length 274 m; draft 9.2 m.

Type: Tanker. MMSI: 271000817.

NotesDate/timePositionNaut miles runAvg speedWind from/ knotsBaromVisibWave heightAir tempDewpointWater temp
2014-Apr-19 08:28N 43°27' E 034°56'1314.8
2014-Apr-19 07:34N 43°20' E 034°39'1514.9
2014-Apr-19 06:33N 43°14' E 034°21'374 9.8
2014-Apr-17 16:32N 40°28' E 026°51'187 4.0
2014-Apr-15 17:30N 37°53' E 024°36'1212.5
2014-Apr-15 16:33N 37°42' E 024°31'1212.2
2014-Apr-15 15:34N 37°31' E 024°24'1513.0
2014-Apr-15 14:24N 37°19' E 024°12'23 7.9
2014-Apr-15 11:32N 37°01' E 023°55'17 8.7
2014-Apr-15 09:33N 36°47' E 023°42'409 9.0
2014-Apr-13 12:13N 36°23' E 015°13'6 8.4
2014-Apr-13 11:34N 36°23' E 015°07'36 8.6
2014-Apr-13 07:25N 36°27' E 014°22'9 8.3
2014-Apr-13 06:23N 36°29' E 014°12'7 8.1
2014-Apr-13 05:30N 36°31' E 014°04'8 8.4
2014-Apr-13 04:34N 36°33' E 013°54'56 8.7
2014-Apr-12 22:05N 36°48' E 012°47'14 8.0
2014-Apr-12 20:22N 36°52' E 012°30'7 8.1
2014-Apr-12 19:31N 36°54' E 012°22'11 8.0
2014-Apr-12 18:09N 36°58' E 012°09'13 8.1
2014-Apr-12 16:33N 37°03' E 011°54'8 8.0
2014-Apr-12 15:33N 37°06' E 011°45'1111.1
2014-Apr-12 14:32N 37°12' E 011°33'1010.0
2014-Apr-12 13:34N 37°17' E 011°22'8 8.0
2014-Apr-12 12:34N 37°21' E 011°14'8 8.4
2014-Apr-12 11:34N 37°24' E 011°04'8 8.5
2014-Apr-12 10:34N 37°26' E 010°53'8 8.5
2014-Apr-12 09:34N 37°28' E 010°43'11 9.1
2014-Apr-12 08:23N 37°31' E 010°30'9 9.4
2014-Apr-12 07:28N 37°33' E 010°19'1313.7
2014-Apr-12 06:33N 37°33' E 010°03'1010.3
2014-Apr-12 05:33N 37°32' E 009°51'10 9.9
2014-Apr-12 04:33N 37°29' E 009°39'9 9.5
2014-Apr-12 03:33N 37°27' E 009°27'9 9.3
2014-Apr-12 02:33N 37°25' E 009°16'9 9.4
2014-Apr-12 01:32N 37°23' E 009°04'9 9.5
2014-Apr-12 00:33N 37°21' E 008°53'10 9.5
2014-Apr-11 23:33N 37°18' E 008°41'10 9.5
2014-Apr-11 22:33N 37°17' E 008°29'10 9.8
2014-Apr-11 21:33N 37°17' E 008°17'10 9.6
2014-Apr-11 20:33N 37°17' E 008°05'9 9.2
2014-Apr-11 19:32N 37°17' E 007°53'12 9.4
2014-Apr-11 18:15N 37°16' E 007°38'8 9.6
2014-Apr-11 17:27N 37°16' E 007°28'21 9.5
2014-Apr-11 15:16N 37°16' E 007°02'1312.1
2014-Apr-11 14:12N 37°15' E 006°46'913.0
2014-Apr-11 13:32N 37°15' E 006°35'17 8.8
2014-Apr-11 11:33N 37°15' E 006°13'8 8.4
2014-Apr-11 10:33N 37°15' E 006°03'9 8.9
2014-Apr-11 09:30N 37°14' E 005°51'8 9.0
2014-Apr-11 08:33N 37°13' E 005°40'1110.8
2014-Apr-11 07:32N 37°12' E 005°27'1414.0
2014-Apr-11 06:33N 37°11' E 005°10'1110.7
2014-Apr-11 05:33N 37°10' E 004°56'9 9.4
2014-Apr-11 04:33N 37°09' E 004°44'9 9.4
2014-Apr-11 03:33N 37°07' E 004°33'9 9.2
2014-Apr-11 02:33N 37°07' E 004°21'9 9.2
2014-Apr-11 01:33N 37°06' E 004°10'10 9.5
2014-Apr-11 00:33N 37°04' E 003°58'9 9.2
2014-Apr-10 23:33N 37°03' E 003°47'9 8.9
2014-Apr-10 22:30N 37°03' E 003°35'8 8.7
2014-Apr-10 21:33N 37°02' E 003°25'8 8.3
2014-Apr-10 20:33N 37°01' E 003°14'9 8.2
2014-Apr-10 19:29N 36°60' E 003°03'12 8.8
2014-Apr-10 18:10N 36°58' E 002°49'17 9.2
2014-Apr-10 16:17N 36°55' E 002°28'9 9.5
2014-Apr-10 15:22N 36°53' E 002°17'  

Dump ship's entire track history

sailing weather and tide predictions

Besiktas Bosphorus — TCOG3 — position and weather